sensor_id;sensor_type;location;lat;lon;timestamp;temperature;humidity
22917;DHT22;11624;53.250;7.456;2022-07-23T05:34:02;20.36;59.93
22917;DHT22;11624;53.250;7.456;2022-07-23T05:36:32;20.36;59.98
22917;DHT22;11624;53.250;7.456;2022-07-23T05:39:01;20.42;59.87
22917;DHT22;11624;53.250;7.456;2022-07-23T05:41:33;20.42;59.73
22917;DHT22;11624;53.250;7.456;2022-07-23T05:44:03;20.43;59.79
22917;DHT22;11624;53.250;7.456;2022-07-23T05:46:33;20.43;59.78
22917;DHT22;11624;53.250;7.456;2022-07-23T05:49:07;20.48;59.68
22917;DHT22;11624;53.250;7.456;2022-07-23T05:51:51;20.47;59.72
22917;DHT22;11624;53.250;7.456;2022-07-23T05:54:28;20.47;59.71
22917;DHT22;11624;53.250;7.456;2022-07-23T05:56:56;20.48;59.75
22917;DHT22;11624;53.250;7.456;2022-07-23T05:59:25;20.56;59.62
22917;DHT22;11624;53.250;7.456;2022-07-23T06:01:54;20.58;59.67
22917;DHT22;11624;53.250;7.456;2022-07-23T06:04:23;20.63;59.57
22917;DHT22;11624;53.250;7.456;2022-07-23T06:07:14;20.66;59.59
22917;DHT22;11624;53.250;7.456;2022-07-23T06:09:42;20.73;59.65
22917;DHT22;11624;53.250;7.456;2022-07-23T06:12:11;20.79;59.71
22917;DHT22;11624;53.250;7.456;2022-07-23T06:14:39;20.89;59.73
22917;DHT22;11624;53.250;7.456;2022-07-23T06:17:08;21.01;59.70
22917;DHT22;11624;53.250;7.456;2022-07-23T06:19:37;21.17;59.45
22917;DHT22;11624;53.250;7.456;2022-07-23T06:22:05;21.22;59.17
22917;DHT22;11624;53.250;7.456;2022-07-23T06:24:33;21.28;59.38
22917;DHT22;11624;53.250;7.456;2022-07-23T06:27:03;21.38;59.22
22917;DHT22;11624;53.250;7.456;2022-07-23T06:29:31;21.48;59.03
22917;DHT22;11624;53.250;7.456;2022-07-23T06:31:59;21.57;58.96
22917;DHT22;11624;53.250;7.456;2022-07-23T06:34:27;21.65;58.67
22917;DHT22;11624;53.250;7.456;2022-07-23T06:36:57;21.76;58.68
22917;DHT22;11624;53.250;7.456;2022-07-23T06:39:26;21.85;58.35
22917;DHT22;11624;53.250;7.456;2022-07-23T06:41:54;21.85;58.23
22917;DHT22;11624;53.250;7.456;2022-07-23T06:44:36;21.95;58.41
22917;DHT22;11624;53.250;7.456;2022-07-23T06:47:07;22.08;58.11
22917;DHT22;11624;53.250;7.456;2022-07-23T06:49:35;22.22;58.09
22917;DHT22;11624;53.250;7.456;2022-07-23T06:52:05;22.37;57.58
22917;DHT22;11624;53.250;7.456;2022-07-23T06:54:33;22.49;57.42
22917;DHT22;11624;53.250;7.456;2022-07-23T06:57:02;22.62;57.01
22917;DHT22;11624;53.250;7.456;2022-07-23T06:59:30;22.69;56.23
22917;DHT22;11624;53.250;7.456;2022-07-23T07:01:58;22.72;55.78
22917;DHT22;11624;53.250;7.456;2022-07-23T07:04:27;22.76;55.84
22917;DHT22;11624;53.250;7.456;2022-07-23T07:06:55;22.84;55.87
22917;DHT22;11624;53.250;7.456;2022-07-23T07:09:24;22.93;55.04
22917;DHT22;11624;53.250;7.456;2022-07-23T07:11:52;22.93;54.91
22917;DHT22;11624;53.250;7.456;2022-07-23T07:14:20;23.01;55.08
22917;DHT22;11624;53.250;7.456;2022-07-23T07:16:48;23.12;54.55
22917;DHT22;11624;53.250;7.456;2022-07-23T07:19:17;23.12;54.13
22917;DHT22;11624;53.250;7.456;2022-07-23T07:21:45;23.17;53.81
22917;DHT22;11624;53.250;7.456;2022-07-23T07:24:13;23.25;53.11
22917;DHT22;11624;53.250;7.456;2022-07-23T07:26:42;23.24;53.36
22917;DHT22;11624;53.250;7.456;2022-07-23T07:29:11;23.28;53.04
22917;DHT22;11624;53.250;7.456;2022-07-23T07:31:39;23.39;53.15
22917;DHT22;11624;53.250;7.456;2022-07-23T07:34:07;23.54;52.45
22917;DHT22;11624;53.250;7.456;2022-07-23T07:36:35;23.60;51.92
22917;DHT22;11624;53.250;7.456;2022-07-23T07:39:03;23.57;52.07
22917;DHT22;11624;53.250;7.456;2022-07-23T07:41:33;23.67;51.97
22917;DHT22;11624;53.250;7.456;2022-07-23T07:44:02;23.88;50.97
22917;DHT22;11624;53.250;7.456;2022-07-23T07:46:31;23.99;50.65
22917;DHT22;11624;53.250;7.456;2022-07-23T07:48:59;23.98;49.53
22917;DHT22;11624;53.250;7.456;2022-07-23T07:51:27;23.94;49.60
22917;DHT22;11624;53.250;7.456;2022-07-23T07:53:56;23.91;50.21
22917;DHT22;11624;53.250;7.456;2022-07-23T07:56:24;23.97;49.37
22917;DHT22;11624;53.250;7.456;2022-07-23T07:58:53;24.01;49.05
22917;DHT22;11624;53.250;7.456;2022-07-23T08:01:22;24.01;49.31
22917;DHT22;11624;53.250;7.456;2022-07-23T08:03:51;24.05;49.15
22917;DHT22;11624;53.250;7.456;2022-07-23T08:06:19;24.05;49.05
22917;DHT22;11624;53.250;7.456;2022-07-23T08:08:48;23.90;49.16
22917;DHT22;11624;53.250;7.456;2022-07-23T08:11:16;23.81;49.66
22917;DHT22;11624;53.250;7.456;2022-07-23T08:13:44;23.71;49.41
22917;DHT22;11624;53.250;7.456;2022-07-23T08:16:12;23.60;49.36
22917;DHT22;11624;53.250;7.456;2022-07-23T08:18:41;23.54;49.28
22917;DHT22;11624;53.250;7.456;2022-07-23T08:21:09;23.49;49.75
22917;DHT22;11624;53.250;7.456;2022-07-23T08:23:37;23.49;49.90
22917;DHT22;11624;53.250;7.456;2022-07-23T08:26:06;23.61;49.98
22917;DHT22;11624;53.250;7.456;2022-07-23T08:28:34;24.02;49.70
22917;DHT22;11624;53.250;7.456;2022-07-23T08:31:02;24.32;48.69
22917;DHT22;11624;53.250;7.456;2022-07-23T08:33:32;24.43;47.30
22917;DHT22;11624;53.250;7.456;2022-07-23T08:36:03;24.41;46.54
22917;DHT22;11624;53.250;7.456;2022-07-23T08:38:32;24.35;46.79
22917;DHT22;11624;53.250;7.456;2022-07-23T08:41:01;24.34;46.57
22917;DHT22;11624;53.250;7.456;2022-07-23T08:43:52;24.21;45.78
22917;DHT22;11624;53.250;7.456;2022-07-23T08:46:30;24.02;45.81
22917;DHT22;11624;53.250;7.456;2022-07-23T08:48:58;23.92;46.04
22917;DHT22;11624;53.250;7.456;2022-07-23T08:51:34;23.89;46.70
22917;DHT22;11624;53.250;7.456;2022-07-23T08:54:30;23.97;46.43
22917;DHT22;11624;53.250;7.456;2022-07-23T08:57:27;24.00;45.88
22917;DHT22;11624;53.250;7.456;2022-07-23T09:00:39;24.06;45.71
22917;DHT22;11624;53.250;7.456;2022-07-23T09:03:15;24.25;45.83
22917;DHT22;11624;53.250;7.456;2022-07-23T09:06:40;24.69;45.64
22917;DHT22;11624;53.250;7.456;2022-07-23T09:09:41;24.99;45.51
22917;DHT22;11624;53.250;7.456;2022-07-23T09:12:56;25.31;44.07
22917;DHT22;11624;53.250;7.456;2022-07-23T09:15:26;25.45;43.65
22917;DHT22;11624;53.250;7.456;2022-07-23T09:17:54;25.66;42.73
22917;DHT22;11624;53.250;7.456;2022-07-23T09:20:23;25.99;41.49
22917;DHT22;11624;53.250;7.456;2022-07-23T09:22:52;26.33;39.75
22917;DHT22;11624;53.250;7.456;2022-07-23T09:25:37;26.57;38.98
22917;DHT22;11624;53.250;7.456;2022-07-23T09:28:05;26.58;38.24
22917;DHT22;11624;53.250;7.456;2022-07-23T09:30:34;26.60;39.17
22917;DHT22;11624;53.250;7.456;2022-07-23T09:33:10;26.91;37.42
22917;DHT22;11624;53.250;7.456;2022-07-23T09:35:50;26.97;36.84
22917;DHT22;11624;53.250;7.456;2022-07-23T09:38:21;26.84;36.88
22917;DHT22;11624;53.250;7.456;2022-07-23T09:41:05;26.55;37.18
22917;DHT22;11624;53.250;7.456;2022-07-23T09:43:34;26.32;37.34
22917;DHT22;11624;53.250;7.456;2022-07-23T09:46:18;26.21;38.84
22917;DHT22;11624;53.250;7.456;2022-07-23T09:48:48;26.53;38.99
22917;DHT22;11624;53.250;7.456;2022-07-23T09:51:17;27.01;37.99
22917;DHT22;11624;53.250;7.456;2022-07-23T09:53:52;27.34;35.76
22917;DHT22;11624;53.250;7.456;2022-07-23T09:57:25;27.35;35.10
22917;DHT22;11624;53.250;7.456;2022-07-23T10:00:00;27.20;36.02
22917;DHT22;11624;53.250;7.456;2022-07-23T10:02:32;27.45;35.43
22917;DHT22;11624;53.250;7.456;2022-07-23T10:05:21;27.84;34.68
22917;DHT22;11624;53.250;7.456;2022-07-23T10:08:12;27.91;33.68
22917;DHT22;11624;53.250;7.456;2022-07-23T10:11:01;27.69;33.79
22917;DHT22;11624;53.250;7.456;2022-07-23T10:13:51;27.73;35.94
22917;DHT22;11624;53.250;7.456;2022-07-23T10:16:45;27.56;33.94
22917;DHT22;11624;53.250;7.456;2022-07-23T10:19:17;27.35;34.44
22917;DHT22;11624;53.250;7.456;2022-07-23T10:21:56;27.19;34.31
22917;DHT22;11624;53.250;7.456;2022-07-23T10:24:40;27.38;34.37
22917;DHT22;11624;53.250;7.456;2022-07-23T10:27:25;27.71;34.73
22917;DHT22;11624;53.250;7.456;2022-07-23T10:30:01;28.05;32.80
22917;DHT22;11624;53.250;7.456;2022-07-23T10:32:40;28.47;33.54
22917;DHT22;11624;53.250;7.456;2022-07-23T10:35:22;29.01;32.40
22917;DHT22;11624;53.250;7.456;2022-07-23T10:37:56;29.34;30.45
22917;DHT22;11624;53.250;7.456;2022-07-23T10:40:31;29.61;30.38
22917;DHT22;11624;53.250;7.456;2022-07-23T10:43:16;29.92;31.18
22917;DHT22;11624;53.250;7.456;2022-07-23T10:45:48;30.45;29.86
22917;DHT22;11624;53.250;7.456;2022-07-23T10:48:18;30.42;29.19
22917;DHT22;11624;53.250;7.456;2022-07-23T10:51:07;29.83;30.25
22917;DHT22;11624;53.250;7.456;2022-07-23T10:53:54;30.22;29.80
22917;DHT22;11624;53.250;7.456;2022-07-23T10:56:49;30.10;28.87
22917;DHT22;11624;53.250;7.456;2022-07-23T10:59:19;30.28;29.72
22917;DHT22;11624;53.250;7.456;2022-07-23T11:01:47;30.64;29.23
22917;DHT22;11624;53.250;7.456;2022-07-23T11:04:17;30.89;28.99
22917;DHT22;11624;53.250;7.456;2022-07-23T11:07:08;31.05;28.37
22917;DHT22;11624;53.250;7.456;2022-07-23T11:09:54;30.89;29.16
22917;DHT22;11624;53.250;7.456;2022-07-23T11:12:36;30.89;28.23
22917;DHT22;11624;53.250;7.456;2022-07-23T11:15:09;30.82;28.84
22917;DHT22;11624;53.250;7.456;2022-07-23T11:17:39;30.92;29.49
22917;DHT22;11624;53.250;7.456;2022-07-23T11:24:02;29.97;30.49
22917;DHT22;11624;53.250;7.456;2022-07-23T11:26:44;29.89;30.87
22917;DHT22;11624;53.250;7.456;2022-07-23T11:29:44;30.05;31.31
22917;DHT22;11624;53.250;7.456;2022-07-23T11:35:21;30.65;30.00
22917;DHT22;11624;53.250;7.456;2022-07-23T11:37:51;30.78;31.70
22917;DHT22;11624;53.250;7.456;2022-07-23T11:40:25;30.60;29.75
22917;DHT22;11624;53.250;7.456;2022-07-23T11:42:57;30.56;30.54
22917;DHT22;11624;53.250;7.456;2022-07-23T11:45:32;30.81;31.32
22917;DHT22;11624;53.250;7.456;2022-07-23T11:48:03;31.26;30.55
22917;DHT22;11624;53.250;7.456;2022-07-23T11:50:32;31.14;29.89
22917;DHT22;11624;53.250;7.456;2022-07-23T11:53:01;30.85;30.29
22917;DHT22;11624;53.250;7.456;2022-07-23T11:55:29;30.49;30.67
22917;DHT22;11624;53.250;7.456;2022-07-23T11:57:58;30.60;30.38
22917;DHT22;11624;53.250;7.456;2022-07-23T12:00:28;31.00;30.70
22917;DHT22;11624;53.250;7.456;2022-07-23T12:03:00;31.23;29.93
22917;DHT22;11624;53.250;7.456;2022-07-23T12:05:33;31.20;30.12
22917;DHT22;11624;53.250;7.456;2022-07-23T12:08:03;30.91;29.66
22917;DHT22;11624;53.250;7.456;2022-07-23T12:10:35;30.71;29.67
22917;DHT22;11624;53.250;7.456;2022-07-23T12:13:05;30.50;31.18
22917;DHT22;11624;53.250;7.456;2022-07-23T12:15:36;30.39;30.94
22917;DHT22;11624;53.250;7.456;2022-07-23T12:18:07;30.51;31.41
22917;DHT22;11624;53.250;7.456;2022-07-23T12:20:39;30.75;29.93
22917;DHT22;11624;53.250;7.456;2022-07-23T12:23:10;30.83;30.32
22917;DHT22;11624;53.250;7.456;2022-07-23T12:25:47;31.26;29.33
22917;DHT22;11624;53.250;7.456;2022-07-23T12:28:17;31.59;29.01
22917;DHT22;11624;53.250;7.456;2022-07-23T12:30:46;31.64;29.12
22917;DHT22;11624;53.250;7.456;2022-07-23T12:33:21;31.69;29.58
22917;DHT22;11624;53.250;7.456;2022-07-23T12:35:53;32.12;29.51
22917;DHT22;11624;53.250;7.456;2022-07-23T12:38:24;32.24;27.65
22917;DHT22;11624;53.250;7.456;2022-07-23T12:40:53;32.11;27.96
22917;DHT22;11624;53.250;7.456;2022-07-23T12:43:23;31.96;28.95
22917;DHT22;11624;53.250;7.456;2022-07-23T12:45:54;32.19;28.84
22917;DHT22;11624;53.250;7.456;2022-07-23T12:48:24;32.13;27.74
22917;DHT22;11624;53.250;7.456;2022-07-23T12:50:59;31.78;28.85
22917;DHT22;11624;53.250;7.456;2022-07-23T12:53:29;31.63;30.15
22917;DHT22;11624;53.250;7.456;2022-07-23T12:56:01;31.67;29.05
22917;DHT22;11624;53.250;7.456;2022-07-23T12:58:44;31.61;28.15
22917;DHT22;11624;53.250;7.456;2022-07-23T13:01:27;31.24;29.14
22917;DHT22;11624;53.250;7.456;2022-07-23T13:04:03;31.25;29.53
22917;DHT22;11624;53.250;7.456;2022-07-23T13:06:55;30.97;29.91
22917;DHT22;11624;53.250;7.456;2022-07-23T13:09:27;30.86;31.06
22917;DHT22;11624;53.250;7.456;2022-07-23T13:11:59;31.08;30.86
22917;DHT22;11624;53.250;7.456;2022-07-23T13:14:28;31.43;30.87
22917;DHT22;11624;53.250;7.456;2022-07-23T13:16:57;31.40;29.70
22917;DHT22;11624;53.250;7.456;2022-07-23T13:19:26;30.89;30.32
22917;DHT22;11624;53.250;7.456;2022-07-23T13:21:56;30.54;31.61
22917;DHT22;11624;53.250;7.456;2022-07-23T13:24:44;30.50;32.15
22917;DHT22;11624;53.250;7.456;2022-07-23T13:27:13;30.66;31.32
22917;DHT22;11624;53.250;7.456;2022-07-23T13:29:43;30.59;32.14
22917;DHT22;11624;53.250;7.456;2022-07-23T13:32:12;30.48;32.67
22917;DHT22;11624;53.250;7.456;2022-07-23T13:34:40;30.27;32.62
22917;DHT22;11624;53.250;7.456;2022-07-23T13:37:12;30.06;32.47
22917;DHT22;11624;53.250;7.456;2022-07-23T13:39:40;30.01;33.28
22917;DHT22;11624;53.250;7.456;2022-07-23T13:42:09;30.39;32.70
22917;DHT22;11624;53.250;7.456;2022-07-23T13:44:37;30.63;31.84
22917;DHT22;11624;53.250;7.456;2022-07-23T13:47:06;30.32;31.71
22917;DHT22;11624;53.250;7.456;2022-07-23T13:49:34;30.04;32.41
22917;DHT22;11624;53.250;7.456;2022-07-23T13:52:03;30.06;32.35
22917;DHT22;11624;53.250;7.456;2022-07-23T13:54:35;29.80;33.09
22917;DHT22;11624;53.250;7.456;2022-07-23T13:57:04;29.68;34.64
22917;DHT22;11624;53.250;7.456;2022-07-23T13:59:33;29.91;33.87
22917;DHT22;11624;53.250;7.456;2022-07-23T14:02:01;30.18;33.20
22917;DHT22;11624;53.250;7.456;2022-07-23T14:04:50;30.54;32.76
22917;DHT22;11624;53.250;7.456;2022-07-23T14:07:18;30.94;32.02
22917;DHT22;11624;53.250;7.456;2022-07-23T14:09:49;31.34;31.57
22917;DHT22;11624;53.250;7.456;2022-07-23T14:12:19;31.57;31.67
22917;DHT22;11624;53.250;7.456;2022-07-23T14:14:49;31.57;30.35
22917;DHT22;11624;53.250;7.456;2022-07-23T14:17:20;31.13;30.00
22917;DHT22;11624;53.250;7.456;2022-07-23T14:19:50;30.56;31.60
22917;DHT22;11624;53.250;7.456;2022-07-23T14:22:18;30.22;32.85
22917;DHT22;11624;53.250;7.456;2022-07-23T14:24:48;30.11;32.27
22917;DHT22;11624;53.250;7.456;2022-07-23T14:27:17;29.92;33.47
22917;DHT22;11624;53.250;7.456;2022-07-23T14:29:47;29.87;34.15
22917;DHT22;11624;53.250;7.456;2022-07-23T14:32:15;30.04;33.65
22917;DHT22;11624;53.250;7.456;2022-07-23T14:34:43;30.41;33.86
22917;DHT22;11624;53.250;7.456;2022-07-23T14:37:15;30.77;32.41
22917;DHT22;11624;53.250;7.456;2022-07-23T14:39:45;30.93;32.59
22917;DHT22;11624;53.250;7.456;2022-07-23T14:42:18;31.01;31.97
22917;DHT22;11624;53.250;7.456;2022-07-23T14:44:46;31.02;32.10
22917;DHT22;11624;53.250;7.456;2022-07-23T14:47:15;31.10;30.61
22917;DHT22;11624;53.250;7.456;2022-07-23T14:49:47;30.65;30.90
22917;DHT22;11624;53.250;7.456;2022-07-23T14:52:16;30.41;31.68
22917;DHT22;11624;53.250;7.456;2022-07-23T14:54:44;30.05;32.36
22917;DHT22;11624;53.250;7.456;2022-07-23T14:57:17;30.13;32.69
22917;DHT22;11624;53.250;7.456;2022-07-23T14:59:52;29.97;32.49
22917;DHT22;11624;53.250;7.456;2022-07-23T15:02:21;29.93;32.82
22917;DHT22;11624;53.250;7.456;2022-07-23T15:04:50;29.95;32.90
22917;DHT22;11624;53.250;7.456;2022-07-23T15:07:18;30.26;34.21
22917;DHT22;11624;53.250;7.456;2022-07-23T15:09:47;30.57;32.22
22917;DHT22;11624;53.250;7.456;2022-07-23T15:12:17;30.63;32.72
22917;DHT22;11624;53.250;7.456;2022-07-23T15:14:47;30.67;31.34
22917;DHT22;11624;53.250;7.456;2022-07-23T15:17:16;30.60;32.26
22917;DHT22;11624;53.250;7.456;2022-07-23T15:19:46;30.55;31.12
22917;DHT22;11624;53.250;7.456;2022-07-23T15:22:15;30.55;31.10
22917;DHT22;11624;53.250;7.456;2022-07-23T15:24:44;30.51;32.17
22917;DHT22;11624;53.250;7.456;2022-07-23T15:27:12;30.60;31.90
22917;DHT22;11624;53.250;7.456;2022-07-23T15:29:42;30.53;31.41
22917;DHT22;11624;53.250;7.456;2022-07-23T15:32:11;30.40;33.07
22917;DHT22;11624;53.250;7.456;2022-07-23T15:34:40;30.46;32.15
22917;DHT22;11624;53.250;7.456;2022-07-23T15:37:09;30.63;32.06
22917;DHT22;11624;53.250;7.456;2022-07-23T15:39:40;30.66;31.53
22917;DHT22;11624;53.250;7.456;2022-07-23T15:42:09;30.37;32.08
22917;DHT22;11624;53.250;7.456;2022-07-23T15:44:42;30.18;32.34
22917;DHT22;11624;53.250;7.456;2022-07-23T15:47:15;30.21;32.44
22917;DHT22;11624;53.250;7.456;2022-07-23T15:49:43;30.21;33.02
22917;DHT22;11624;53.250;7.456;2022-07-23T15:52:13;30.31;32.25
22917;DHT22;11624;53.250;7.456;2022-07-23T15:54:41;30.23;33.03
22917;DHT22;11624;53.250;7.456;2022-07-23T15:57:10;30.23;32.59
22917;DHT22;11624;53.250;7.456;2022-07-23T15:59:40;30.27;33.13
22917;DHT22;11624;53.250;7.456;2022-07-23T16:02:10;30.33;32.51
22917;DHT22;11624;53.250;7.456;2022-07-23T16:04:39;30.22;32.56
22917;DHT22;11624;53.250;7.456;2022-07-23T16:07:07;30.00;32.80
22917;DHT22;11624;53.250;7.456;2022-07-23T16:09:41;30.07;32.96
22917;DHT22;11624;53.250;7.456;2022-07-23T16:12:09;30.26;32.60
22917;DHT22;11624;53.250;7.456;2022-07-23T16:14:37;30.25;32.78
22917;DHT22;11624;53.250;7.456;2022-07-23T16:17:06;29.95;32.96
22917;DHT22;11624;53.250;7.456;2022-07-23T16:19:36;29.67;33.75
22917;DHT22;11624;53.250;7.456;2022-07-23T16:22:05;29.39;33.54
22917;DHT22;11624;53.250;7.456;2022-07-23T16:24:33;29.37;35.00
22917;DHT22;11624;53.250;7.456;2022-07-23T16:27:01;29.52;34.44
22917;DHT22;11624;53.250;7.456;2022-07-23T16:29:32;29.62;34.60
22917;DHT22;11624;53.250;7.456;2022-07-23T16:32:00;29.54;33.93
22917;DHT22;11624;53.250;7.456;2022-07-23T16:34:29;29.47;34.37
22917;DHT22;11624;53.250;7.456;2022-07-23T16:36:59;29.48;34.84
22917;DHT22;11624;53.250;7.456;2022-07-23T16:39:27;29.61;35.54
22917;DHT22;11624;53.250;7.456;2022-07-23T16:41:55;29.73;35.06
22917;DHT22;11624;53.250;7.456;2022-07-23T16:44:24;29.72;35.27
22917;DHT22;11624;53.250;7.456;2022-07-23T16:46:52;29.60;33.78
22917;DHT22;11624;53.250;7.456;2022-07-23T16:49:21;29.31;34.16
22917;DHT22;11624;53.250;7.456;2022-07-23T16:51:49;29.23;34.72
22917;DHT22;11624;53.250;7.456;2022-07-23T16:54:19;29.29;34.84
22917;DHT22;11624;53.250;7.456;2022-07-23T16:56:48;29.34;35.76
22917;DHT22;11624;53.250;7.456;2022-07-23T16:59:16;29.32;34.73
22917;DHT22;11624;53.250;7.456;2022-07-23T17:01:44;29.36;35.08
22917;DHT22;11624;53.250;7.456;2022-07-23T17:04:13;29.38;36.05
22917;DHT22;11624;53.250;7.456;2022-07-23T17:06:41;29.39;35.69
22917;DHT22;11624;53.250;7.456;2022-07-23T17:09:10;29.38;35.08
22917;DHT22;11624;53.250;7.456;2022-07-23T17:11:41;29.43;35.25
22917;DHT22;11624;53.250;7.456;2022-07-23T17:14:09;29.42;34.96
22917;DHT22;11624;53.250;7.456;2022-07-23T17:16:41;29.34;34.92
22917;DHT22;11624;53.250;7.456;2022-07-23T17:19:10;29.24;35.70
22917;DHT22;11624;53.250;7.456;2022-07-23T17:21:38;29.15;35.64
22917;DHT22;11624;53.250;7.456;2022-07-23T17:24:07;29.08;35.47
22917;DHT22;11624;53.250;7.456;2022-07-23T17:26:37;29.05;36.10
22917;DHT22;11624;53.250;7.456;2022-07-23T17:29:10;29.08;35.92
22917;DHT22;11624;53.250;7.456;2022-07-23T17:31:38;29.07;36.03
22917;DHT22;11624;53.250;7.456;2022-07-23T17:34:07;29.04;35.64
22917;DHT22;11624;53.250;7.456;2022-07-23T17:36:36;29.02;35.81
22917;DHT22;11624;53.250;7.456;2022-07-23T17:39:05;29.00;36.65
22917;DHT22;11624;53.250;7.456;2022-07-23T17:41:43;28.91;36.08
22917;DHT22;11624;53.250;7.456;2022-07-23T17:44:29;28.83;36.05
22917;DHT22;11624;53.250;7.456;2022-07-23T17:47:12;28.82;36.59
22917;DHT22;11624;53.250;7.456;2022-07-23T17:49:56;28.71;35.87
22917;DHT22;11624;53.250;7.456;2022-07-23T17:52:52;28.50;36.27
22917;DHT22;11624;53.250;7.456;2022-07-23T17:55:47;28.39;36.87
22917;DHT22;11624;53.250;7.456;2022-07-23T17:58:35;28.31;36.43
22917;DHT22;11624;53.250;7.456;2022-07-23T18:01:29;28.18;37.05
22917;DHT22;11624;53.250;7.456;2022-07-23T18:03:59;28.04;37.30
22917;DHT22;11624;53.250;7.456;2022-07-23T18:06:27;27.80;37.16
22917;DHT22;11624;53.250;7.456;2022-07-23T18:08:55;27.60;37.76
22917;DHT22;11624;53.250;7.456;2022-07-23T18:11:30;27.45;38.39
22917;DHT22;11624;53.250;7.456;2022-07-23T18:13:58;27.32;38.63
22917;DHT22;11624;53.250;7.456;2022-07-23T18:16:29;27.19;38.76
22917;DHT22;11624;53.250;7.456;2022-07-23T18:18:57;27.01;38.99
22917;DHT22;11624;53.250;7.456;2022-07-23T18:21:26;26.87;39.20
22917;DHT22;11624;53.250;7.456;2022-07-23T18:23:54;26.73;39.59
22917;DHT22;11624;53.250;7.456;2022-07-23T18:26:23;26.65;39.65
22917;DHT22;11624;53.250;7.456;2022-07-23T18:28:51;26.56;39.87
22917;DHT22;11624;53.250;7.456;2022-07-23T18:31:42;26.46;40.01
22917;DHT22;11624;53.250;7.456;2022-07-23T18:34:19;26.35;40.95
22917;DHT22;11624;53.250;7.456;2022-07-23T18:37:18;26.23;40.87
22917;DHT22;11624;53.250;7.456;2022-07-23T18:44:54;25.92;41.79
22917;DHT22;11624;53.250;7.456;2022-07-23T18:48:22;25.79;42.65
22917;DHT22;11624;53.250;7.456;2022-07-23T18:54:11;25.61;42.40
22917;DHT22;11624;53.250;7.456;2022-07-23T18:56:41;25.54;42.10
22917;DHT22;11624;53.250;7.456;2022-07-23T18:59:18;25.48;42.54
22917;DHT22;11624;53.250;7.456;2022-07-23T19:01:50;25.42;42.72
22917;DHT22;11624;53.250;7.456;2022-07-23T19:04:20;25.36;43.33
22917;DHT22;11624;53.250;7.456;2022-07-23T19:06:48;25.25;43.48
22917;DHT22;11624;53.250;7.456;2022-07-23T19:09:16;25.14;43.94
22917;DHT22;11624;53.250;7.456;2022-07-23T19:11:44;25.02;44.16
22917;DHT22;11624;53.250;7.456;2022-07-23T19:14:13;24.93;44.54
22917;DHT22;11624;53.250;7.456;2022-07-23T19:16:41;24.85;44.70
22917;DHT22;11624;53.250;7.456;2022-07-23T19:19:10;24.77;44.56
22917;DHT22;11624;53.250;7.456;2022-07-23T19:21:39;24.69;44.71
22917;DHT22;11624;53.250;7.456;2022-07-23T19:24:07;24.59;45.22
22917;DHT22;11624;53.250;7.456;2022-07-23T19:26:36;24.47;45.65
22917;DHT22;11624;53.250;7.456;2022-07-23T19:29:04;24.40;45.92
22917;DHT22;11624;53.250;7.456;2022-07-23T19:31:33;24.30;45.95
22917;DHT22;11624;53.250;7.456;2022-07-23T19:34:02;24.19;46.12
22917;DHT22;11624;53.250;7.456;2022-07-23T19:36:30;24.13;46.29
22917;DHT22;11624;53.250;7.456;2022-07-23T19:39:00;24.05;46.58
22917;DHT22;11624;53.250;7.456;2022-07-23T19:41:28;23.96;46.79
22917;DHT22;11624;53.250;7.456;2022-07-23T19:43:57;23.92;46.68
22917;DHT22;11624;53.250;7.456;2022-07-23T19:46:51;23.84;46.21
22917;DHT22;11624;53.250;7.456;2022-07-23T19:49:27;23.70;47.21
22917;DHT22;11624;53.250;7.456;2022-07-23T19:51:56;23.64;47.41
22917;DHT22;11624;53.250;7.456;2022-07-23T19:54:25;23.57;47.74
22917;DHT22;11624;53.250;7.456;2022-07-23T19:56:54;23.50;47.59
22917;DHT22;11624;53.250;7.456;2022-07-23T19:59:22;23.43;47.86
22917;DHT22;11624;53.250;7.456;2022-07-23T20:01:50;23.37;47.99
22917;DHT22;11624;53.250;7.456;2022-07-23T20:04:18;23.31;48.08
22917;DHT22;11624;53.250;7.456;2022-07-23T20:06:55;23.23;48.07
22917;DHT22;11624;53.250;7.456;2022-07-23T20:09:48;23.11;48.60
22917;DHT22;11624;53.250;7.456;2022-07-23T20:12:18;23.06;48.76
22917;DHT22;11624;53.250;7.456;2022-07-23T20:14:47;22.99;48.91
22917;DHT22;11624;53.250;7.456;2022-07-23T20:17:15;22.94;49.01
22917;DHT22;11624;53.250;7.456;2022-07-23T20:19:46;22.87;48.97
22917;DHT22;11624;53.250;7.456;2022-07-23T20:22:14;22.84;49.31
22917;DHT22;11624;53.250;7.456;2022-07-23T20:24:43;22.80;49.44
22917;DHT22;11624;53.250;7.456;2022-07-23T20:27:12;22.78;49.37
22917;DHT22;11624;53.250;7.456;2022-07-23T20:29:47;22.71;49.43
22917;DHT22;11624;53.250;7.456;2022-07-23T20:32:22;22.68;49.48
22917;DHT22;11624;53.250;7.456;2022-07-23T20:35:09;22.62;49.76
22917;DHT22;11624;53.250;7.456;2022-07-23T20:37:38;22.58;49.86
22917;DHT22;11624;53.250;7.456;2022-07-23T20:40:15;22.55;50.08
22917;DHT22;11624;53.250;7.456;2022-07-23T20:42:45;22.50;50.18
22917;DHT22;11624;53.250;7.456;2022-07-23T20:45:15;22.47;50.31
22917;DHT22;11624;53.250;7.456;2022-07-23T20:48:51;22.38;49.87
22917;DHT22;11624;53.250;7.456;2022-07-23T20:52:11;22.33;50.44
22917;DHT22;11624;53.250;7.456;2022-07-23T21:00:00;22.18;50.27
22917;DHT22;11624;53.250;7.456;2022-07-23T21:02:29;22.17;50.71
22917;DHT22;11624;53.250;7.456;2022-07-23T21:04:57;22.16;50.80
22917;DHT22;11624;53.250;7.456;2022-07-23T21:08:01;22.08;50.34
22917;DHT22;11624;53.250;7.456;2022-07-23T21:11:20;22.07;50.92
22917;DHT22;11624;53.250;7.456;2022-07-23T21:14:29;22.03;51.01
22917;DHT22;11624;53.250;7.456;2022-07-23T21:17:00;22.01;51.16
22917;DHT22;11624;53.250;7.456;2022-07-23T21:23:47;21.87;50.78
22917;DHT22;11624;53.250;7.456;2022-07-23T21:26:16;21.87;51.25
22917;DHT22;11624;53.250;7.456;2022-07-23T21:33:01;21.74;51.28
22917;DHT22;11624;53.250;7.456;2022-07-23T21:39:04;21.69;51.64
22917;DHT22;11624;53.250;7.456;2022-07-23T21:41:35;21.67;51.63
22917;DHT22;11624;53.250;7.456;2022-07-23T21:45:27;21.57;51.37
22917;DHT22;11624;53.250;7.456;2022-07-23T21:48:17;21.58;51.89
22917;DHT22;11624;53.250;7.456;2022-07-23T21:50:53;21.55;52.00
22917;DHT22;11624;53.250;7.456;2022-07-23T21:53:21;21.53;52.05
22917;DHT22;11624;53.250;7.456;2022-07-23T21:55:49;21.53;52.06
22917;DHT22;11624;53.250;7.456;2022-07-23T21:58:17;21.53;52.15
22917;DHT22;11624;53.250;7.456;2022-07-23T22:00:45;21.51;52.25
22917;DHT22;11624;53.250;7.456;2022-07-23T22:03:18;21.50;52.33
22917;DHT22;11624;53.250;7.456;2022-07-23T22:05:47;21.50;52.21
22917;DHT22;11624;53.250;7.456;2022-07-23T22:08:15;21.49;52.25
22917;DHT22;11624;53.250;7.456;2022-07-23T22:10:43;21.47;52.36
22917;DHT22;11624;53.250;7.456;2022-07-23T22:13:13;21.43;52.59
22917;DHT22;11624;53.250;7.456;2022-07-23T22:15:43;21.39;52.66